Airport View

Enter AWOS ICAO identifier for current METAR.

ex. KFNL

CYOC 191800Z VRB02KT 35SM FEW030 SCT200 18/05 A3011 RMK CU1CI3 CU TR SLP206 DENSITY ALT 1200FT

19 Jun 2019 18:46

Other Area AWOS: CYUA

TAF CYOC 191738Z 1918/2001 VRB03KT P6SM FEW030 SCT200 RMK NXT FCST WILL BE ISSUED AT 201445Z